Terminal Aerodrome Forecast
Issued by NWS Wilmington, OH

Current Version | Previous Version | Graphics & Text | Print | Product List | Glossary On
Versions: 1 2 3 4 5 6 7 8 9 10 11 12 13 14 15 16 17 18 19 20 21 22 23 24
000
FTUS41 KILN 150539
TAFDAY
TAF
KDAY 150539Z 1506/1606 VRB03KT P6SM OVC150
     FM151200 24011KT P6SM BKN035
     FM151700 26015G25KT P6SM BKN025 OVC040
     FM152200 25010KT P6SM OVC040
     FM160300 23011KT P6SM OVC050=

USA.gov is the U.S. government's official web portal to all federal, state and local government web resources and services.